WAT5543 LIPR-LSGG
Flight info
| Callsign | WAT5543 |
|---|---|
| Flight time | N/A |
| Altitude | 32000 |
| Route | PELEG DCT GOXIN DCT LURUT DCT EVANO DCT AOSTA/N0378F220 L615 BANKO |
| Aircraft | A20N/M-SDE2E3FGHIRWXY/LB1 |
Departure
| Time | N/A |
|---|---|
| Airport | Federico Fellini International Airport (LIPR) |
Arrival
| Time | 2026-02-17 05:39 |
|---|---|
| Airport | Geneva International Airport (LSGG) |
| Time | Latitude | Longitude | Altitude | Speed | Heading |
|---|---|---|---|---|---|
| 2026-02-17 05:39 | 46.23158 | 6.10739 | 1392 ft | 0 kts | 132° |
| 2026-02-17 05:49 | 46.23160 | 6.10735 | 1403 ft | 2 kts | 131° |
| 2026-02-17 05:49 | 46.23171 | 6.10716 | 1407 ft | 2 kts | 127° |
| 2026-02-17 05:49 | 46.23179 | 6.10696 | 1386 ft | 2 kts | 110° |
| 2026-02-17 05:50 | 46.23178 | 6.10674 | 1387 ft | 2 kts | 52° |
| 2026-02-17 05:50 | 46.23175 | 6.10669 | 1387 ft | 0 kts | 48° |
| 2026-02-17 05:52 | 46.23176 | 6.10670 | 1387 ft | 1 kts | 48° |
| 2026-02-17 05:52 | 46.23192 | 6.10695 | 1390 ft | 6 kts | 46° |
| 2026-02-17 05:53 | 46.23237 | 6.10759 | 1389 ft | 12 kts | 40° |
| 2026-02-17 05:53 | 46.23332 | 6.10799 | 1382 ft | 17 kts | 355° |
| 2026-02-17 05:53 | 46.23425 | 6.10712 | 1385 ft | 14 kts | 352° |
| 2026-02-17 05:53 | 46.23509 | 6.10792 | 1382 ft | 15 kts | 46° |
| 2026-02-17 05:54 | 46.23582 | 6.10901 | 1382 ft | 15 kts | 45° |
| 2026-02-17 05:54 | 46.23657 | 6.11011 | 1379 ft | 16 kts | 45° |
| 2026-02-17 05:54 | 46.23730 | 6.11116 | 1382 ft | 14 kts | 45° |
| 2026-02-17 05:55 | 46.23859 | 6.11307 | 1378 ft | 13 kts | 45° |
| 2026-02-17 05:55 | 46.23919 | 6.11394 | 1379 ft | 12 kts | 45° |
| 2026-02-17 05:55 | 46.23990 | 6.11497 | 1377 ft | 17 kts | 45° |
| 2026-02-17 05:55 | 46.24080 | 6.11629 | 1372 ft | 20 kts | 46° |
| 2026-02-17 05:56 | 46.24186 | 6.11785 | 1370 ft | 23 kts | 46° |
| 2026-02-17 05:56 | 46.24296 | 6.11948 | 1370 ft | 23 kts | 45° |
| 2026-02-17 05:56 | 46.24405 | 6.12108 | 1371 ft | 21 kts | 46° |
| 2026-02-17 05:56 | 46.24508 | 6.12260 | 1370 ft | 22 kts | 46° |
| 2026-02-17 05:57 | 46.24614 | 6.12412 | 1367 ft | 22 kts | 45° |
| 2026-02-17 05:57 | 46.24727 | 6.12579 | 1362 ft | 24 kts | 46° |
| 2026-02-17 05:57 | 46.24866 | 6.12698 | 1359 ft | 20 kts | 18° |
| 2026-02-17 05:57 | 46.24980 | 6.12710 | 1359 ft | 15 kts | 325° |
| 2026-02-17 05:58 | 46.24971 | 6.12601 | 1362 ft | 12 kts | 223° |
| 2026-02-17 05:58 | 46.24826 | 6.12392 | 1363 ft | 58 kts | 225° |
| 2026-02-17 05:58 | 46.24397 | 6.11765 | 1372 ft | 117 kts | 226° |
| 2026-02-17 05:59 | 46.23146 | 6.09487 | 2010 ft | 161 kts | 256° |
| 2026-02-17 05:59 | 46.23246 | 6.07855 | 2617 ft | 165 kts | 284° |
| 2026-02-17 05:59 | 46.23386 | 6.06219 | 3252 ft | 169 kts | 269° |
| 2026-02-17 05:59 | 46.23531 | 6.04595 | 3767 ft | 155 kts | 294° |
| 2026-02-17 06:00 | 46.24274 | 6.03638 | 4363 ft | 151 kts | 346° |
| 2026-02-17 06:00 | 46.25362 | 6.04031 | 4693 ft | 177 kts | 22° |
| 2026-02-17 06:00 | 46.26473 | 6.04993 | 5032 ft | 195 kts | 30° |
| 2026-02-17 06:00 | 46.27525 | 6.06303 | 5402 ft | 212 kts | 38° |
| 2026-02-17 06:01 | 46.28641 | 6.07897 | 5612 ft | 239 kts | 39° |
| 2026-02-17 06:01 | 46.29879 | 6.09655 | 6001 ft | 258 kts | 39° |
| 2026-02-17 06:01 | 46.31193 | 6.11489 | 6621 ft | 266 kts | 38° |
| 2026-02-17 06:01 | 46.32541 | 6.13342 | 7365 ft | 269 kts | 37° |
| 2026-02-17 06:02 | 46.33914 | 6.15213 | 8156 ft | 273 kts | 37° |
| 2026-02-17 06:02 | 46.35308 | 6.17104 | 8991 ft | 276 kts | 36° |
| 2026-02-17 06:02 | 46.36730 | 6.18987 | 9837 ft | 278 kts | 35° |
| 2026-02-17 06:03 | 46.39736 | 6.22906 | 10779 ft | 309 kts | 35° |
| 2026-02-17 06:03 | 46.41383 | 6.25063 | 11082 ft | 330 kts | 36° |
| 2026-02-17 06:03 | 46.43121 | 6.27375 | 11506 ft | 347 kts | 36° |
| 2026-02-17 06:03 | 46.44894 | 6.29750 | 12137 ft | 355 kts | 36° |
| 2026-02-17 06:04 | 46.46711 | 6.32192 | 12911 ft | 359 kts | 36° |
| 2026-02-17 06:04 | 46.48552 | 6.34666 | 13688 ft | 362 kts | 36° |
| 2026-02-17 06:04 | 46.50404 | 6.37156 | 14423 ft | 364 kts | 36° |
| 2026-02-17 06:04 | 46.52274 | 6.39668 | 15102 ft | 368 kts | 36° |
| 2026-02-17 06:05 | 46.54113 | 6.42287 | 15818 ft | 375 kts | 41° |
| 2026-02-17 06:05 | 46.55632 | 6.45444 | 16508 ft | 390 kts | 56° |
| 2026-02-17 06:05 | 46.56540 | 6.49233 | 17239 ft | 406 kts | 73° |
| 2026-02-17 06:05 | 46.56741 | 6.53317 | 18000 ft | 416 kts | 84° |
| 2026-02-17 06:06 | 46.56663 | 6.57542 | 18577 ft | 422 kts | 86° |
| 2026-02-17 06:06 | 46.56535 | 6.61833 | 19094 ft | 428 kts | 86° |
| 2026-02-17 06:06 | 46.56408 | 6.66178 | 19636 ft | 433 kts | 86° |
| 2026-02-17 06:07 | 46.56168 | 6.75009 | 20699 ft | 442 kts | 85° |
| 2026-02-17 06:07 | 46.56062 | 6.79494 | 21214 ft | 445 kts | 83° |
| 2026-02-17 06:07 | 46.56229 | 6.83965 | 21736 ft | 440 kts | 73° |
| 2026-02-17 06:07 | 46.56926 | 6.88237 | 22318 ft | 431 kts | 61° |
| 2026-02-17 06:08 | 46.58128 | 6.92103 | 22911 ft | 419 kts | 50° |
| 2026-02-17 06:08 | 46.59723 | 6.95595 | 23486 ft | 414 kts | 44° |
| 2026-02-17 06:08 | 46.61465 | 6.98922 | 23945 ft | 414 kts | 40° |
| 2026-02-17 06:08 | 46.63280 | 7.02177 | 24354 ft | 415 kts | 39° |
| 2026-02-17 06:09 | 46.65128 | 7.05416 | 24784 ft | 416 kts | 38° |
| 2026-02-17 06:09 | 46.66981 | 7.08661 | 25217 ft | 418 kts | 38° |
| 2026-02-17 06:09 | 46.68841 | 7.11941 | 25621 ft | 422 kts | 38° |
| 2026-02-17 06:09 | 46.70710 | 7.15271 | 26037 ft | 425 kts | 38° |
| 2026-02-17 06:10 | 46.72546 | 7.18580 | 26465 ft | 428 kts | 37° |
| 2026-02-17 06:10 | 46.74444 | 7.22020 | 26895 ft | 431 kts | 37° |
| 2026-02-17 06:10 | 46.76309 | 7.25403 | 27209 ft | 435 kts | 38° |
| 2026-02-17 06:11 | 46.80121 | 7.32340 | 28001 ft | 441 kts | 37° |
| 2026-02-17 06:11 | 46.82037 | 7.35840 | 28554 ft | 441 kts | 37° |
| 2026-02-17 06:11 | 46.83943 | 7.39336 | 29123 ft | 440 kts | 37° |
| 2026-02-17 06:11 | 46.85843 | 7.42828 | 29644 ft | 437 kts | 36° |
| 2026-02-17 06:12 | 46.87396 | 7.45687 | 30064 ft | 436 kts | 36° |
| 2026-02-17 06:12 | 46.89224 | 7.49053 | 30434 ft | 435 kts | 36° |
| 2026-02-17 06:12 | 46.91120 | 7.52542 | 30815 ft | 435 kts | 36° |
| 2026-02-17 06:12 | 46.92999 | 7.55999 | 31185 ft | 434 kts | 36° |
| 2026-02-17 06:13 | 46.94888 | 7.59470 | 31442 ft | 437 kts | 37° |
| 2026-02-17 06:13 | 46.96761 | 7.62907 | 31695 ft | 439 kts | 37° |
| 2026-02-17 06:13 | 46.98660 | 7.66416 | 32108 ft | 439 kts | 37° |
| 2026-02-17 06:13 | 47.00551 | 7.69918 | 32515 ft | 437 kts | 37° |
| 2026-02-17 06:14 | 47.02431 | 7.73405 | 32872 ft | 436 kts | 37° |
| 2026-02-17 06:14 | 47.04308 | 7.76893 | 33192 ft | 435 kts | 37° |
| 2026-02-17 06:14 | 47.06181 | 7.80376 | 33511 ft | 434 kts | 37° |
| 2026-02-17 06:15 | 47.09925 | 7.87342 | 34055 ft | 435 kts | 37° |
| 2026-02-17 06:15 | 47.11796 | 7.90830 | 34300 ft | 436 kts | 37° |
| 2026-02-17 06:15 | 47.13616 | 7.94449 | 34411 ft | 448 kts | 42° |
| 2026-02-17 06:15 | 47.15319 | 7.98230 | 34586 ft | 450 kts | 43° |
| 2026-02-17 06:16 | 47.17012 | 8.02108 | 34830 ft | 451 kts | 44° |
| 2026-02-17 06:16 | 47.18684 | 8.06015 | 35063 ft | 452 kts | 44° |
| 2026-02-17 06:16 | 47.20345 | 8.09934 | 35289 ft | 452 kts | 45° |
| 2026-02-17 06:17 | 47.23664 | 8.17788 | 35675 ft | 453 kts | 45° |
| 2026-02-17 06:17 | 47.25330 | 8.21730 | 35887 ft | 453 kts | 45° |
| 2026-02-17 06:17 | 47.26991 | 8.25661 | 36092 ft | 453 kts | 45° |
| 2026-02-17 06:17 | 47.28711 | 8.29514 | 36302 ft | 445 kts | 40° |
| 2026-02-17 06:18 | 47.30693 | 8.32921 | 36494 ft | 432 kts | 32° |
| 2026-02-17 06:18 | 47.32910 | 8.35730 | 36601 ft | 421 kts | 25° |
| 2026-02-17 06:18 | 47.35279 | 8.38248 | 36776 ft | 419 kts | 23° |
| 2026-02-17 06:19 | 47.40104 | 8.42990 | 37170 ft | 416 kts | 22° |
| 2026-02-17 06:19 | 47.42531 | 8.45305 | 37328 ft | 416 kts | 21° |
| 2026-02-17 06:19 | 47.44967 | 8.47626 | 37498 ft | 416 kts | 22° |
| 2026-02-17 06:19 | 47.47396 | 8.49951 | 37667 ft | 417 kts | 22° |
| 2026-02-17 06:20 | 47.49825 | 8.52290 | 37834 ft | 418 kts | 22° |
| 2026-02-17 06:20 | 47.54685 | 8.56997 | 38011 ft | 421 kts | 22° |
| 2026-02-17 06:20 | 47.57141 | 8.59391 | 38187 ft | 421 kts | 22° |
| 2026-02-17 06:21 | 47.59581 | 8.61776 | 38356 ft | 421 kts | 22° |
| 2026-02-17 06:21 | 47.62026 | 8.64168 | 38505 ft | 421 kts | 22° |
| 2026-02-17 06:21 | 47.64471 | 8.66561 | 38620 ft | 421 kts | 23° |
| 2026-02-17 06:22 | 47.69370 | 8.71361 | 38802 ft | 422 kts | 23° |
| 2026-02-17 06:22 | 47.74299 | 8.76194 | 38844 ft | 426 kts | 23° |
| 2026-02-17 06:23 | 47.81677 | 8.83464 | 38826 ft | 425 kts | 23° |
| 2026-02-17 06:23 | 47.86606 | 8.88334 | 38827 ft | 425 kts | 23° |
| 2026-02-17 06:24 | 47.91545 | 8.93219 | 38835 ft | 427 kts | 24° |
| 2026-02-17 06:24 | 47.96516 | 8.98144 | 38816 ft | 430 kts | 24° |
| 2026-02-17 06:25 | 48.01495 | 9.03099 | 38816 ft | 430 kts | 24° |
| 2026-02-17 06:25 | 48.06445 | 9.08036 | 38809 ft | 430 kts | 24° |
| 2026-02-17 06:26 | 48.11431 | 9.13018 | 38806 ft | 432 kts | 25° |
| 2026-02-17 06:27 | 48.19383 | 9.18481 | 38806 ft | 409 kts | 4° |
| 2026-02-17 06:27 | 48.24966 | 9.19769 | 38799 ft | 405 kts | 360° |
| 2026-02-17 06:28 | 48.30522 | 9.20694 | 38804 ft | 405 kts | 359° |
| 2026-02-17 06:28 | 48.36136 | 9.21579 | 38794 ft | 407 kts | 359° |
| 2026-02-17 06:29 | 48.41770 | 9.22504 | 38787 ft | 407 kts | 359° |
| 2026-02-17 06:29 | 48.47407 | 9.23457 | 38784 ft | 407 kts | 359° |
| 2026-02-17 06:30 | 48.52999 | 9.24410 | 38794 ft | 407 kts | 359° |
| 2026-02-17 06:30 | 48.58633 | 9.25371 | 38800 ft | 407 kts | 359° |
| 2026-02-17 06:31 | 48.67069 | 9.26509 | 38802 ft | 405 kts | 357° |
| 2026-02-17 06:31 | 48.72697 | 9.27000 | 38812 ft | 405 kts | 356° |
| 2026-02-17 06:32 | 48.78324 | 9.27491 | 38798 ft | 405 kts | 357° |
| 2026-02-17 06:32 | 48.83922 | 9.28009 | 38794 ft | 406 kts | 357° |
| 2026-02-17 06:33 | 48.89553 | 9.28544 | 38787 ft | 406 kts | 357° |
| 2026-02-17 06:33 | 48.95186 | 9.29084 | 38788 ft | 406 kts | 357° |
| 2026-02-17 06:34 | 49.00837 | 9.29625 | 38767 ft | 407 kts | 357° |
| 2026-02-17 06:35 | 49.09319 | 9.30439 | 38758 ft | 407 kts | 357° |
| 2026-02-17 06:35 | 49.14936 | 9.30981 | 38769 ft | 406 kts | 357° |
| 2026-02-17 06:36 | 49.20543 | 9.32630 | 38754 ft | 419 kts | 12° |
| 2026-02-17 06:36 | 49.25769 | 9.36940 | 38752 ft | 437 kts | 27° |
| 2026-02-17 06:37 | 49.30618 | 9.42703 | 38758 ft | 444 kts | 31° |
| 2026-02-17 06:37 | 49.35350 | 9.48705 | 38737 ft | 445 kts | 31° |
| 2026-02-17 06:38 | 49.40116 | 9.54757 | 38729 ft | 445 kts | 31° |
| 2026-02-17 06:38 | 49.44903 | 9.60782 | 38724 ft | 445 kts | 31° |
| 2026-02-17 06:39 | 49.52091 | 9.69809 | 38722 ft | 445 kts | 31° |
| 2026-02-17 06:39 | 49.56884 | 9.75844 | 38734 ft | 445 kts | 31° |
| 2026-02-17 06:40 | 49.61678 | 9.81899 | 38716 ft | 446 kts | 31° |
| 2026-02-17 06:40 | 49.66443 | 9.87935 | 38710 ft | 446 kts | 31° |
| 2026-02-17 06:41 | 49.70813 | 9.94891 | 38706 ft | 462 kts | 47° |
| 2026-02-17 06:41 | 49.72456 | 9.99214 | 38709 ft | 472 kts | 59° |
| 2026-02-17 06:41 | 49.73680 | 10.03951 | 38704 ft | 477 kts | 64° |
| 2026-02-17 06:42 | 49.75423 | 10.12068 | 38727 ft | 480 kts | 67° |
| 2026-02-17 06:43 | 49.78628 | 10.28529 | 38700 ft | 481 kts | 67° |
| 2026-02-17 06:43 | 49.80573 | 10.38425 | 38707 ft | 480 kts | 67° |
| 2026-02-17 06:44 | 49.82534 | 10.48311 | 38720 ft | 480 kts | 67° |
| 2026-02-17 06:44 | 49.84478 | 10.58131 | 38716 ft | 480 kts | 67° |
| 2026-02-17 06:45 | 49.86424 | 10.68009 | 38711 ft | 479 kts | 67° |
| 2026-02-17 06:45 | 49.88361 | 10.77903 | 38715 ft | 480 kts | 67° |
| 2026-02-17 06:46 | 49.90290 | 10.87806 | 38714 ft | 480 kts | 68° |
| 2026-02-17 06:46 | 49.92198 | 10.97657 | 38716 ft | 480 kts | 68° |
| 2026-02-17 06:47 | 49.95060 | 11.12530 | 38703 ft | 480 kts | 68° |
| 2026-02-17 06:47 | 49.96469 | 11.20877 | 38693 ft | 484 kts | 77° |
| 2026-02-17 06:48 | 49.96710 | 11.33127 | 38696 ft | 491 kts | 88° |
| 2026-02-17 06:48 | 49.96398 | 11.43737 | 38688 ft | 493 kts | 89° |
| 2026-02-17 06:49 | 49.96072 | 11.52558 | 38690 ft | 492 kts | 90° |
| 2026-02-17 06:49 | 49.95686 | 11.63166 | 38683 ft | 492 kts | 90° |
| 2026-02-17 06:50 | 49.95312 | 11.73768 | 38678 ft | 491 kts | 90° |
| 2026-02-17 06:51 | 49.94747 | 11.89652 | 38675 ft | 491 kts | 90° |
| 2026-02-17 06:51 | 49.94437 | 12.00180 | 38673 ft | 490 kts | 89° |
| 2026-02-17 06:52 | 49.94228 | 12.10758 | 38494 ft | 490 kts | 88° |
| 2026-02-17 06:52 | 49.94126 | 12.16002 | 38365 ft | 482 kts | 88° |
| 2026-02-17 06:52 | 49.94021 | 12.21201 | 37728 ft | 483 kts | 88° |
| 2026-02-17 06:52 | 49.93913 | 12.26476 | 36623 ft | 495 kts | 89° |
| 2026-02-17 06:53 | 49.93798 | 12.31865 | 35689 ft | 503 kts | 89° |
| 2026-02-17 06:53 | 49.93662 | 12.37279 | 35253 ft | 499 kts | 90° |
| 2026-02-17 06:53 | 49.93511 | 12.42647 | 34780 ft | 496 kts | 90° |
| 2026-02-17 06:53 | 49.93357 | 12.47978 | 34219 ft | 495 kts | 90° |
| 2026-02-17 06:54 | 49.93202 | 12.53317 | 33629 ft | 495 kts | 90° |
| 2026-02-17 06:54 | 49.93048 | 12.58568 | 32937 ft | 494 kts | 90° |
| 2026-02-17 06:54 | 49.92890 | 12.63891 | 32258 ft | 493 kts | 90° |
| 2026-02-17 06:55 | 49.92568 | 12.74508 | 30925 ft | 491 kts | 90° |
| 2026-02-17 06:55 | 49.92404 | 12.79798 | 30269 ft | 490 kts | 91° |
| 2026-02-17 06:55 | 49.92239 | 12.85061 | 29594 ft | 489 kts | 91° |
| 2026-02-17 06:55 | 49.92072 | 12.90314 | 28648 ft | 485 kts | 91° |
| 2026-02-17 06:56 | 49.91903 | 12.95530 | 27372 ft | 484 kts | 92° |
| 2026-02-17 06:56 | 49.91734 | 13.00686 | 26075 ft | 484 kts | 92° |
| 2026-02-17 06:56 | 49.91561 | 13.05901 | 24748 ft | 485 kts | 92° |
| 2026-02-17 06:56 | 49.91386 | 13.11130 | 23459 ft | 485 kts | 93° |
| 2026-02-17 06:57 | 49.91208 | 13.16321 | 22292 ft | 478 kts | 93° |
| 2026-02-17 06:57 | 49.91031 | 13.21433 | 21082 ft | 471 kts | 93° |
| 2026-02-17 06:57 | 49.90854 | 13.26465 | 20015 ft | 463 kts | 93° |
| 2026-02-17 06:57 | 49.90679 | 13.31382 | 19210 ft | 450 kts | 92° |
| 2026-02-17 06:58 | 49.90507 | 13.36161 | 18449 ft | 437 kts | 92° |
| 2026-02-17 06:58 | 49.90339 | 13.40806 | 17707 ft | 426 kts | 92° |
| 2026-02-17 06:58 | 49.90390 | 13.45271 | 16960 ft | 413 kts | 81° |
| 2026-02-17 06:59 | 49.92490 | 13.53123 | 15570 ft | 385 kts | 52° |
| 2026-02-17 06:59 | 49.94069 | 13.56405 | 14937 ft | 378 kts | 49° |
| 2026-02-17 06:59 | 49.95687 | 13.59637 | 14286 ft | 379 kts | 49° |
| 2026-02-17 06:59 | 49.97304 | 13.62868 | 13630 ft | 380 kts | 49° |
| 2026-02-17 07:00 | 49.98920 | 13.66117 | 12919 ft | 380 kts | 49° |
| 2026-02-17 07:00 | 50.00528 | 13.69366 | 12240 ft | 378 kts | 49° |
| 2026-02-17 07:00 | 50.02123 | 13.72598 | 11622 ft | 376 kts | 49° |
| 2026-02-17 07:00 | 50.03690 | 13.75780 | 10965 ft | 374 kts | 49° |
| 2026-02-17 07:01 | 50.05260 | 13.78975 | 10315 ft | 371 kts | 50° |
| 2026-02-17 07:01 | 50.06801 | 13.82126 | 10109 ft | 357 kts | 51° |
| 2026-02-17 07:01 | 50.08081 | 13.85294 | 9997 ft | 336 kts | 59° |
| 2026-02-17 07:01 | 50.09084 | 13.88438 | 9900 ft | 313 kts | 62° |
| 2026-02-17 07:02 | 50.09978 | 13.91395 | 9790 ft | 292 kts | 62° |
| 2026-02-17 07:02 | 50.10818 | 13.94187 | 9672 ft | 278 kts | 62° |
| 2026-02-17 07:02 | 50.11629 | 13.96876 | 9523 ft | 271 kts | 62° |
| 2026-02-17 07:03 | 50.13226 | 14.02158 | 8751 ft | 270 kts | 61° |
| 2026-02-17 07:03 | 50.14021 | 14.04794 | 8414 ft | 268 kts | 61° |
| 2026-02-17 07:03 | 50.14815 | 14.07425 | 8072 ft | 268 kts | 61° |
| 2026-02-17 07:03 | 50.15604 | 14.10045 | 7738 ft | 267 kts | 61° |
| 2026-02-17 07:04 | 50.16390 | 14.12657 | 7397 ft | 266 kts | 61° |
| 2026-02-17 07:04 | 50.17172 | 14.15262 | 7056 ft | 265 kts | 60° |
| 2026-02-17 07:04 | 50.17945 | 14.17840 | 6762 ft | 259 kts | 60° |
| 2026-02-17 07:04 | 50.18696 | 14.20345 | 6427 ft | 258 kts | 60° |
| 2026-02-17 07:05 | 50.19458 | 14.22886 | 6097 ft | 259 kts | 60° |
| 2026-02-17 07:05 | 50.20218 | 14.25424 | 5747 ft | 258 kts | 60° |
| 2026-02-17 07:05 | 50.20978 | 14.27959 | 5439 ft | 257 kts | 60° |
| 2026-02-17 07:05 | 50.21729 | 14.30477 | 5238 ft | 256 kts | 60° |
| 2026-02-17 07:06 | 50.22478 | 14.32990 | 5078 ft | 255 kts | 60° |
| 2026-02-17 07:06 | 50.23224 | 14.35495 | 4860 ft | 254 kts | 60° |
| 2026-02-17 07:06 | 50.23966 | 14.37993 | 4530 ft | 252 kts | 60° |
| 2026-02-17 07:07 | 50.25365 | 14.42987 | 4030 ft | 253 kts | 70° |
| 2026-02-17 07:07 | 50.25495 | 14.45737 | 4010 ft | 258 kts | 97° |
| 2026-02-17 07:07 | 50.24820 | 14.48252 | 4003 ft | 250 kts | 128° |
| 2026-02-17 07:07 | 50.23565 | 14.49900 | 4001 ft | 226 kts | 154° |
| 2026-02-17 07:08 | 50.22214 | 14.50880 | 3999 ft | 203 kts | 161° |
| 2026-02-17 07:08 | 50.20957 | 14.51536 | 4034 ft | 176 kts | 175° |
| 2026-02-17 07:08 | 50.19841 | 14.51522 | 4007 ft | 149 kts | 201° |
| 2026-02-17 07:08 | 50.18957 | 14.50858 | 4015 ft | 137 kts | 229° |
| 2026-02-17 07:09 | 50.18361 | 14.49749 | 4022 ft | 132 kts | 246° |
| 2026-02-17 07:09 | 50.17926 | 14.48494 | 4036 ft | 132 kts | 251° |
| 2026-02-17 07:09 | 50.17537 | 14.47210 | 4020 ft | 133 kts | 252° |
| 2026-02-17 07:09 | 50.17146 | 14.45894 | 3911 ft | 134 kts | 252° |
| 2026-02-17 07:10 | 50.16749 | 14.44578 | 3711 ft | 134 kts | 251° |
| 2026-02-17 07:10 | 50.16356 | 14.43264 | 3525 ft | 134 kts | 251° |
| 2026-02-17 07:10 | 50.15965 | 14.41955 | 3328 ft | 133 kts | 251° |
| 2026-02-17 07:11 | 50.15189 | 14.39358 | 2959 ft | 131 kts | 250° |
| 2026-02-17 07:11 | 50.14805 | 14.38070 | 2774 ft | 130 kts | 250° |
| 2026-02-17 07:11 | 50.14421 | 14.36785 | 2601 ft | 131 kts | 250° |
| 2026-02-17 07:11 | 50.14043 | 14.35521 | 2425 ft | 130 kts | 250° |
| 2026-02-17 07:12 | 50.13662 | 14.34245 | 2234 ft | 130 kts | 249° |
| 2026-02-17 07:12 | 50.13269 | 14.32979 | 2018 ft | 130 kts | 246° |
| 2026-02-17 07:12 | 50.12887 | 14.31714 | 1857 ft | 129 kts | 249° |
| 2026-02-17 07:12 | 50.12532 | 14.30431 | 1693 ft | 127 kts | 245° |
| 2026-02-17 07:13 | 50.12162 | 14.29227 | 1467 ft | 119 kts | 244° |
| 2026-02-17 07:13 | 50.11803 | 14.28050 | 1313 ft | 123 kts | 245° |
| 2026-02-17 07:13 | 50.11453 | 14.26869 | 1178 ft | 112 kts | 245° |
| 2026-02-17 07:13 | 50.11193 | 14.25993 | 1169 ft | 52 kts | 245° |
| 2026-02-17 07:14 | 50.11078 | 14.25622 | 1175 ft | 34 kts | 239° |
| 2026-02-17 07:14 | 50.10934 | 14.25382 | 1180 ft | 22 kts | 212° |
| 2026-02-17 07:14 | 50.10794 | 14.25350 | 1174 ft | 21 kts | 167° |
| 2026-02-17 07:15 | 50.10636 | 14.25649 | 1180 ft | 17 kts | 119° |
| 2026-02-17 07:15 | 50.10582 | 14.25794 | 1186 ft | 15 kts | 121° |
| 2026-02-17 07:15 | 50.10535 | 14.25927 | 1189 ft | 12 kts | 109° |
| 2026-02-17 07:15 | 50.10524 | 14.26026 | 1192 ft | 8 kts | 79° |
| 2026-02-17 07:16 | 50.10537 | 14.26128 | 1191 ft | 11 kts | 80° |
| 2026-02-17 07:16 | 50.10555 | 14.26235 | 1190 ft | 12 kts | 46° |
| 2026-02-17 07:16 | 50.10591 | 14.26272 | 1188 ft | 0 kts | 29° |